FK-0034 weather

Sea Lion Island Airstrip
Sea Lion Island, Falkland Islands

Public forecast

Using degrees Celsius for public forecast. Weather courtesy of forecast.io.

METAR (pilot weather report)

Closest report is Mount Pleasant Airport, 44.8 nm (83.0 km) NE. Retrieved 2019/07/19 14:50 UTC (41 minutes ago):

EGYP 191450Z 30020KT 9999 FEW015 SCT170 07/03 Q0987 BLU NOSIG

TAF (pilot weather forecast)

Closest forecast is Mount Pleasant Airport, 44.8 nm (83.0 km) NE. Retrieved 2019/07/19 15:33 UTC (0 seconds ago):

TAF EGYP 191319Z 1915/2009 35015G25KT 9999 FEW025 520003 TEMPO 1915/1924 35025G35KT 530003 PROB40 TEMPO 1915/1924 VRB08KT SCT007 560003 BECMG 2000/2002 27010KT 50//// PROB40 TEMPO 2002/2009 3000 BR BKN003 PROB30 TEMPO 2004/2009 0500 FG BKN000